sensor_id;sensor_type;location;lat;lon;timestamp;P1;durP1;ratioP1;P2;durP2;ratioP2
82244;SDS011;71849;50.096;14.458;2024-02-16T00:00:28;32.80;;;20.02;;
82244;SDS011;71849;50.096;14.458;2024-02-16T00:02:57;31.65;;;17.85;;
82244;SDS011;71849;50.096;14.458;2024-02-16T00:05:28;27.52;;;17.30;;
82244;SDS011;71849;50.096;14.458;2024-02-16T00:07:57;26.05;;;15.98;;
82244;SDS011;71849;50.096;14.458;2024-02-16T00:10:30;32.08;;;19.75;;
82244;SDS011;71849;50.096;14.458;2024-02-16T00:12:58;31.33;;;18.42;;
82244;SDS011;71849;50.096;14.458;2024-02-16T00:15:27;29.02;;;18.20;;
82244;SDS011;71849;50.096;14.458;2024-02-16T00:17:56;27.58;;;17.67;;
82244;SDS011;71849;50.096;14.458;2024-02-16T00:20:24;26.98;;;16.42;;
82244;SDS011;71849;50.096;14.458;2024-02-16T00:22:53;31.02;;;18.92;;
82244;SDS011;71849;50.096;14.458;2024-02-16T00:25:21;28.02;;;17.27;;
82244;SDS011;71849;50.096;14.458;2024-02-16T00:27:52;33.97;;;22.27;;
82244;SDS011;71849;50.096;14.458;2024-02-16T00:30:21;32.42;;;19.77;;
82244;SDS011;71849;50.096;14.458;2024-02-16T00:32:50;33.00;;;19.17;;
82244;SDS011;71849;50.096;14.458;2024-02-16T00:35:19;26.80;;;17.45;;
82244;SDS011;71849;50.096;14.458;2024-02-16T00:37:47;26.10;;;16.70;;
82244;SDS011;71849;50.096;14.458;2024-02-16T00:40:17;25.52;;;15.38;;
82244;SDS011;71849;50.096;14.458;2024-02-16T00:42:45;21.30;;;12.65;;
82244;SDS011;71849;50.096;14.458;2024-02-16T00:47:46;18.23;;;10.50;;
82244;SDS011;71849;50.096;14.458;2024-02-16T00:50:15;20.98;;;12.07;;
82244;SDS011;71849;50.096;14.458;2024-02-16T00:52:43;17.98;;;11.45;;
82244;SDS011;71849;50.096;14.458;2024-02-16T00:55:12;20.00;;;12.00;;
82244;SDS011;71849;50.096;14.458;2024-02-16T00:57:40;19.10;;;11.75;;
82244;SDS011;71849;50.096;14.458;2024-02-16T01:00:10;19.20;;;11.70;;
82244;SDS011;71849;50.096;14.458;2024-02-16T01:02:43;21.33;;;11.35;;
82244;SDS011;71849;50.096;14.458;2024-02-16T01:05:11;20.02;;;12.40;;
82244;SDS011;71849;50.096;14.458;2024-02-16T01:07:42;20.45;;;11.35;;
82244;SDS011;71849;50.096;14.458;2024-02-16T01:10:11;17.42;;;10.18;;
82244;SDS011;71849;50.096;14.458;2024-02-16T01:12:40;19.90;;;11.20;;
82244;SDS011;71849;50.096;14.458;2024-02-16T01:15:09;19.02;;;10.68;;
82244;SDS011;71849;50.096;14.458;2024-02-16T01:17:37;20.23;;;11.32;;
82244;SDS011;71849;50.096;14.458;2024-02-16T01:20:10;20.83;;;11.85;;
82244;SDS011;71849;50.096;14.458;2024-02-16T01:22:40;20.70;;;11.02;;
82244;SDS011;71849;50.096;14.458;2024-02-16T01:25:09;19.10;;;11.45;;
82244;SDS011;71849;50.096;14.458;2024-02-16T01:27:38;20.90;;;12.13;;
82244;SDS011;71849;50.096;14.458;2024-02-16T01:30:06;20.05;;;12.60;;
82244;SDS011;71849;50.096;14.458;2024-02-16T01:32:35;20.33;;;12.43;;
82244;SDS011;71849;50.096;14.458;2024-02-16T01:35:04;23.02;;;11.55;;
82244;SDS011;71849;50.096;14.458;2024-02-16T01:37:36;20.55;;;11.07;;
82244;SDS011;71849;50.096;14.458;2024-02-16T01:40:09;19.73;;;10.95;;
82244;SDS011;71849;50.096;14.458;2024-02-16T01:42:39;20.35;;;11.02;;
82244;SDS011;71849;50.096;14.458;2024-02-16T01:45:11;17.33;;;10.32;;
82244;SDS011;71849;50.096;14.458;2024-02-16T01:47:41;17.85;;;11.70;;
82244;SDS011;71849;50.096;14.458;2024-02-16T01:50:12;17.63;;;10.18;;
82244;SDS011;71849;50.096;14.458;2024-02-16T01:52:45;18.40;;;11.27;;
82244;SDS011;71849;50.096;14.458;2024-02-16T01:55:15;18.60;;;11.02;;
82244;SDS011;71849;50.096;14.458;2024-02-16T01:57:44;20.08;;;10.95;;
82244;SDS011;71849;50.096;14.458;2024-02-16T02:00:14;18.40;;;10.20;;
82244;SDS011;71849;50.096;14.458;2024-02-16T02:05:13;16.67;;;9.57;;
82244;SDS011;71849;50.096;14.458;2024-02-16T02:07:45;17.38;;;9.77;;
82244;SDS011;71849;50.096;14.458;2024-02-16T02:10:13;18.55;;;10.60;;
82244;SDS011;71849;50.096;14.458;2024-02-16T02:12:42;17.88;;;10.25;;
82244;SDS011;71849;50.096;14.458;2024-02-16T02:15:11;19.65;;;11.50;;
82244;SDS011;71849;50.096;14.458;2024-02-16T02:17:40;17.67;;;10.23;;
82244;SDS011;71849;50.096;14.458;2024-02-16T02:20:09;19.30;;;10.50;;
82244;SDS011;71849;50.096;14.458;2024-02-16T02:22:41;18.67;;;10.50;;
82244;SDS011;71849;50.096;14.458;2024-02-16T02:25:09;19.83;;;10.40;;
82244;SDS011;71849;50.096;14.458;2024-02-16T02:27:38;28.48;;;10.90;;
82244;SDS011;71849;50.096;14.458;2024-02-16T02:30:08;18.20;;;10.48;;
82244;SDS011;71849;50.096;14.458;2024-02-16T02:32:37;32.72;;;10.85;;
82244;SDS011;71849;50.096;14.458;2024-02-16T02:35:08;21.05;;;11.57;;
82244;SDS011;71849;50.096;14.458;2024-02-16T02:37:41;21.95;;;10.85;;
82244;SDS011;71849;50.096;14.458;2024-02-16T02:40:10;19.13;;;11.02;;
82244;SDS011;71849;50.096;14.458;2024-02-16T02:42:39;17.92;;;9.82;;
82244;SDS011;71849;50.096;14.458;2024-02-16T02:45:09;20.83;;;10.82;;
82244;SDS011;71849;50.096;14.458;2024-02-16T02:47:38;22.60;;;10.93;;
82244;SDS011;71849;50.096;14.458;2024-02-16T02:50:07;20.67;;;10.82;;
82244;SDS011;71849;50.096;14.458;2024-02-16T02:52:38;20.13;;;11.75;;
82244;SDS011;71849;50.096;14.458;2024-02-16T02:55:09;19.35;;;10.40;;
82244;SDS011;71849;50.096;14.458;2024-02-16T02:57:37;17.75;;;10.57;;
82244;SDS011;71849;50.096;14.458;2024-02-16T03:00:07;19.00;;;11.48;;
82244;SDS011;71849;50.096;14.458;2024-02-16T03:05:05;19.88;;;9.73;;
82244;SDS011;71849;50.096;14.458;2024-02-16T03:07:35;19.90;;;11.15;;
82244;SDS011;71849;50.096;14.458;2024-02-16T03:10:04;21.00;;;11.75;;
82244;SDS011;71849;50.096;14.458;2024-02-16T03:12:37;17.85;;;9.48;;
82244;SDS011;71849;50.096;14.458;2024-02-16T03:15:06;20.23;;;9.75;;
82244;SDS011;71849;50.096;14.458;2024-02-16T03:17:35;19.20;;;10.15;;
82244;SDS011;71849;50.096;14.458;2024-02-16T03:20:04;19.73;;;10.43;;
82244;SDS011;71849;50.096;14.458;2024-02-16T03:22:37;20.42;;;10.15;;
82244;SDS011;71849;50.096;14.458;2024-02-16T03:25:05;27.23;;;11.63;;
82244;SDS011;71849;50.096;14.458;2024-02-16T03:27:37;23.15;;;11.40;;
82244;SDS011;71849;50.096;14.458;2024-02-16T03:30:07;18.95;;;10.77;;
82244;SDS011;71849;50.096;14.458;2024-02-16T03:32:36;22.23;;;11.18;;
82244;SDS011;71849;50.096;14.458;2024-02-16T03:35:05;22.20;;;12.60;;
82244;SDS011;71849;50.096;14.458;2024-02-16T03:37:34;22.08;;;12.23;;
82244;SDS011;71849;50.096;14.458;2024-02-16T03:40:05;20.33;;;10.98;;
82244;SDS011;71849;50.096;14.458;2024-02-16T03:42:37;19.10;;;11.25;;
82244;SDS011;71849;50.096;14.458;2024-02-16T03:45:07;18.88;;;10.07;;
82244;SDS011;71849;50.096;14.458;2024-02-16T03:47:36;19.45;;;11.77;;
82244;SDS011;71849;50.096;14.458;2024-02-16T03:50:05;20.55;;;10.75;;
82244;SDS011;71849;50.096;14.458;2024-02-16T03:52:34;22.52;;;12.25;;
82244;SDS011;71849;50.096;14.458;2024-02-16T03:55:03;21.33;;;10.93;;
82244;SDS011;71849;50.096;14.458;2024-02-16T03:57:32;18.65;;;10.65;;
82244;SDS011;71849;50.096;14.458;2024-02-16T04:00:03;20.20;;;11.05;;
82244;SDS011;71849;50.096;14.458;2024-02-16T04:02:33;18.08;;;10.60;;
82244;SDS011;71849;50.096;14.458;2024-02-16T04:05:02;21.15;;;12.00;;
82244;SDS011;71849;50.096;14.458;2024-02-16T04:07:32;21.70;;;12.07;;
82244;SDS011;71849;50.096;14.458;2024-02-16T04:10:01;20.05;;;11.00;;
82244;SDS011;71849;50.096;14.458;2024-02-16T04:12:30;22.67;;;10.52;;
82244;SDS011;71849;50.096;14.458;2024-02-16T04:14:58;17.70;;;10.75;;
82244;SDS011;71849;50.096;14.458;2024-02-16T04:17:29;20.60;;;11.20;;
82244;SDS011;71849;50.096;14.458;2024-02-16T04:19:58;22.67;;;11.05;;
82244;SDS011;71849;50.096;14.458;2024-02-16T04:22:26;21.15;;;11.18;;
82244;SDS011;71849;50.096;14.458;2024-02-16T04:24:55;21.60;;;12.57;;
82244;SDS011;71849;50.096;14.458;2024-02-16T04:27:24;19.88;;;11.48;;
82244;SDS011;71849;50.096;14.458;2024-02-16T04:29:52;20.67;;;11.27;;
82244;SDS011;71849;50.096;14.458;2024-02-16T04:32:21;19.70;;;11.63;;
82244;SDS011;71849;50.096;14.458;2024-02-16T04:34:53;23.73;;;11.32;;
82244;SDS011;71849;50.096;14.458;2024-02-16T04:37:21;26.15;;;13.48;;
82244;SDS011;71849;50.096;14.458;2024-02-16T04:39:50;22.05;;;11.45;;
82244;SDS011;71849;50.096;14.458;2024-02-16T04:42:19;21.83;;;12.50;;
82244;SDS011;71849;50.096;14.458;2024-02-16T04:44:48;23.73;;;11.90;;
82244;SDS011;71849;50.096;14.458;2024-02-16T04:47:17;21.73;;;12.60;;
82244;SDS011;71849;50.096;14.458;2024-02-16T04:49:46;24.30;;;12.70;;
82244;SDS011;71849;50.096;14.458;2024-02-16T04:52:18;24.02;;;12.82;;
82244;SDS011;71849;50.096;14.458;2024-02-16T04:54:46;27.02;;;12.65;;
82244;SDS011;71849;50.096;14.458;2024-02-16T04:57:14;21.25;;;11.10;;
82244;SDS011;71849;50.096;14.458;2024-02-16T04:59:43;21.45;;;11.50;;
82244;SDS011;71849;50.096;14.458;2024-02-16T05:02:11;19.30;;;10.90;;
82244;SDS011;71849;50.096;14.458;2024-02-16T05:04:40;23.25;;;12.95;;
82244;SDS011;71849;50.096;14.458;2024-02-16T05:07:08;23.73;;;11.30;;
82244;SDS011;71849;50.096;14.458;2024-02-16T05:09:39;24.23;;;12.70;;
82244;SDS011;71849;50.096;14.458;2024-02-16T05:12:10;25.05;;;12.07;;
82244;SDS011;71849;50.096;14.458;2024-02-16T05:14:39;25.02;;;13.23;;
82244;SDS011;71849;50.096;14.458;2024-02-16T05:17:05;22.75;;;12.27;;
82244;SDS011;71849;50.096;14.458;2024-02-16T05:19:34;21.17;;;12.35;;
82244;SDS011;71849;50.096;14.458;2024-02-16T05:22:03;24.33;;;12.68;;
82244;SDS011;71849;50.096;14.458;2024-02-16T05:24:31;26.05;;;12.48;;
82244;SDS011;71849;50.096;14.458;2024-02-16T05:27:03;23.33;;;12.30;;
82244;SDS011;71849;50.096;14.458;2024-02-16T05:29:31;25.77;;;12.25;;
82244;SDS011;71849;50.096;14.458;2024-02-16T05:32:00;28.92;;;13.35;;
82244;SDS011;71849;50.096;14.458;2024-02-16T05:34:28;26.55;;;13.43;;
82244;SDS011;71849;50.096;14.458;2024-02-16T05:37:02;36.42;;;20.20;;
82244;SDS011;71849;50.096;14.458;2024-02-16T05:39:32;40.22;;;22.63;;
82244;SDS011;71849;50.096;14.458;2024-02-16T05:42:04;34.92;;;21.13;;
82244;SDS011;71849;50.096;14.458;2024-02-16T05:44:32;30.70;;;18.42;;
82244;SDS011;71849;50.096;14.458;2024-02-16T05:47:02;29.48;;;16.33;;
82244;SDS011;71849;50.096;14.458;2024-02-16T05:49:33;31.42;;;16.80;;
82244;SDS011;71849;50.096;14.458;2024-02-16T05:52:05;35.80;;;19.10;;
82244;SDS011;71849;50.096;14.458;2024-02-16T05:54:45;37.83;;;20.85;;
82244;SDS011;71849;50.096;14.458;2024-02-16T05:57:18;31.83;;;18.35;;
82244;SDS011;71849;50.096;14.458;2024-02-16T05:59:46;30.50;;;16.88;;
82244;SDS011;71849;50.096;14.458;2024-02-16T06:02:15;28.15;;;15.75;;
82244;SDS011;71849;50.096;14.458;2024-02-16T06:04:43;27.65;;;14.90;;
82244;SDS011;71849;50.096;14.458;2024-02-16T06:07:12;28.52;;;14.20;;
82244;SDS011;71849;50.096;14.458;2024-02-16T06:09:41;28.50;;;13.60;;
82244;SDS011;71849;50.096;14.458;2024-02-16T06:12:09;26.58;;;13.85;;
82244;SDS011;71849;50.096;14.458;2024-02-16T06:14:40;29.80;;;15.55;;
82244;SDS011;71849;50.096;14.458;2024-02-16T06:17:09;25.33;;;15.07;;
82244;SDS011;71849;50.096;14.458;2024-02-16T06:19:39;25.33;;;14.30;;
82244;SDS011;71849;50.096;14.458;2024-02-16T06:22:08;34.45;;;17.17;;
82244;SDS011;71849;50.096;14.458;2024-02-16T06:24:37;28.30;;;14.13;;
82244;SDS011;71849;50.096;14.458;2024-02-16T06:27:05;29.33;;;15.70;;
82244;SDS011;71849;50.096;14.458;2024-02-16T06:29:34;30.45;;;15.32;;
82244;SDS011;71849;50.096;14.458;2024-02-16T06:32:06;32.13;;;17.67;;
82244;SDS011;71849;50.096;14.458;2024-02-16T06:34:36;32.60;;;18.58;;
82244;SDS011;71849;50.096;14.458;2024-02-16T06:37:05;33.65;;;17.55;;
82244;SDS011;71849;50.096;14.458;2024-02-16T06:39:33;33.90;;;19.02;;
82244;SDS011;71849;50.096;14.458;2024-02-16T06:42:02;37.13;;;18.45;;
82244;SDS011;71849;50.096;14.458;2024-02-16T06:44:31;32.67;;;17.25;;
82244;SDS011;71849;50.096;14.458;2024-02-16T06:46:59;35.92;;;18.73;;
82244;SDS011;71849;50.096;14.458;2024-02-16T06:49:31;30.95;;;16.13;;
82244;SDS011;71849;50.096;14.458;2024-02-16T06:52:02;35.10;;;18.05;;
82244;SDS011;71849;50.096;14.458;2024-02-16T06:54:31;29.10;;;16.85;;
82244;SDS011;71849;50.096;14.458;2024-02-16T06:57:01;32.80;;;17.00;;
82244;SDS011;71849;50.096;14.458;2024-02-16T06:59:30;30.35;;;15.18;;
82244;SDS011;71849;50.096;14.458;2024-02-16T07:01:59;34.85;;;16.30;;
82244;SDS011;71849;50.096;14.458;2024-02-16T07:04:33;31.83;;;17.05;;
82244;SDS011;71849;50.096;14.458;2024-02-16T07:07:01;34.30;;;16.65;;
82244;SDS011;71849;50.096;14.458;2024-02-16T07:09:31;32.13;;;16.52;;
82244;SDS011;71849;50.096;14.458;2024-02-16T07:12:00;30.13;;;16.52;;
82244;SDS011;71849;50.096;14.458;2024-02-16T07:14:29;36.67;;;19.20;;
82244;SDS011;71849;50.096;14.458;2024-02-16T07:16:58;35.90;;;19.45;;
82244;SDS011;71849;50.096;14.458;2024-02-16T07:19:27;37.80;;;17.83;;
82244;SDS011;71849;50.096;14.458;2024-02-16T07:21:58;34.20;;;16.63;;
82244;SDS011;71849;50.096;14.458;2024-02-16T07:24:26;34.92;;;16.17;;
82244;SDS011;71849;50.096;14.458;2024-02-16T07:26:55;28.08;;;14.15;;
82244;SDS011;71849;50.096;14.458;2024-02-16T07:29:24;29.20;;;15.88;;
82244;SDS011;71849;50.096;14.458;2024-02-16T07:31:53;26.33;;;14.15;;
82244;SDS011;71849;50.096;14.458;2024-02-16T07:34:21;26.88;;;15.88;;
82244;SDS011;71849;50.096;14.458;2024-02-16T07:36:50;26.90;;;14.07;;
82244;SDS011;71849;50.096;14.458;2024-02-16T07:39:22;29.45;;;15.65;;
82244;SDS011;71849;50.096;14.458;2024-02-16T07:41:51;32.13;;;16.08;;
82244;SDS011;71849;50.096;14.458;2024-02-16T07:44:19;29.60;;;15.95;;
82244;SDS011;71849;50.096;14.458;2024-02-16T07:46:48;27.25;;;13.68;;
82244;SDS011;71849;50.096;14.458;2024-02-16T07:49:17;31.08;;;15.57;;
82244;SDS011;71849;50.096;14.458;2024-02-16T07:51:47;29.83;;;15.00;;
82244;SDS011;71849;50.096;14.458;2024-02-16T07:54:15;32.45;;;15.82;;
82244;SDS011;71849;50.096;14.458;2024-02-16T07:56:46;37.47;;;15.73;;
82244;SDS011;71849;50.096;14.458;2024-02-16T07:59:16;35.70;;;17.80;;
82244;SDS011;71849;50.096;14.458;2024-02-16T08:01:45;27.23;;;15.63;;
82244;SDS011;71849;50.096;14.458;2024-02-16T08:04:15;26.17;;;13.88;;
82244;SDS011;71849;50.096;14.458;2024-02-16T08:09:13;28.13;;;13.30;;
82244;SDS011;71849;50.096;14.458;2024-02-16T08:11:42;25.48;;;13.73;;
82244;SDS011;71849;50.096;14.458;2024-02-16T08:14:13;29.52;;;15.07;;
82244;SDS011;71849;50.096;14.458;2024-02-16T08:16:41;29.20;;;14.40;;
82244;SDS011;71849;50.096;14.458;2024-02-16T08:19:10;26.75;;;13.77;;
82244;SDS011;71849;50.096;14.458;2024-02-16T08:21:39;30.88;;;14.82;;
82244;SDS011;71849;50.096;14.458;2024-02-16T08:24:08;35.15;;;16.73;;
82244;SDS011;71849;50.096;14.458;2024-02-16T08:26:36;25.48;;;13.82;;
82244;SDS011;71849;50.096;14.458;2024-02-16T08:29:06;30.48;;;13.90;;
82244;SDS011;71849;50.096;14.458;2024-02-16T08:31:37;27.70;;;13.73;;
82244;SDS011;71849;50.096;14.458;2024-02-16T08:34:06;25.17;;;13.95;;
82244;SDS011;71849;50.096;14.458;2024-02-16T08:36:35;28.30;;;13.88;;
82244;SDS011;71849;50.096;14.458;2024-02-16T08:39:05;27.83;;;13.60;;
82244;SDS011;71849;50.096;14.458;2024-02-16T08:41:33;27.00;;;14.10;;
82244;SDS011;71849;50.096;14.458;2024-02-16T08:44:02;37.55;;;15.98;;
82244;SDS011;71849;50.096;14.458;2024-02-16T08:49:17;32.47;;;14.57;;
82244;SDS011;71849;50.096;14.458;2024-02-16T08:51:45;27.67;;;14.65;;
82244;SDS011;71849;50.096;14.458;2024-02-16T08:54:14;29.08;;;14.30;;
82244;SDS011;71849;50.096;14.458;2024-02-16T08:56:45;26.92;;;14.63;;
82244;SDS011;71849;50.096;14.458;2024-02-16T08:59:13;28.15;;;14.63;;
82244;SDS011;71849;50.096;14.458;2024-02-16T09:01:43;26.40;;;13.55;;
82244;SDS011;71849;50.096;14.458;2024-02-16T09:04:18;31.77;;;13.35;;
82244;SDS011;71849;50.096;14.458;2024-02-16T09:06:46;27.27;;;13.27;;
82244;SDS011;71849;50.096;14.458;2024-02-16T09:09:16;25.60;;;13.77;;
82244;SDS011;71849;50.096;14.458;2024-02-16T09:11:44;26.75;;;14.43;;
82244;SDS011;71849;50.096;14.458;2024-02-16T09:14:13;26.77;;;13.77;;
82244;SDS011;71849;50.096;14.458;2024-02-16T09:16:48;37.35;;;15.07;;
82244;SDS011;71849;50.096;14.458;2024-02-16T09:19:21;28.48;;;13.90;;
82244;SDS011;71849;50.096;14.458;2024-02-16T09:21:49;28.35;;;13.93;;
82244;SDS011;71849;50.096;14.458;2024-02-16T09:24:19;27.27;;;14.23;;
82244;SDS011;71849;50.096;14.458;2024-02-16T09:26:50;29.38;;;15.98;;
82244;SDS011;71849;50.096;14.458;2024-02-16T09:29:19;32.53;;;16.90;;
82244;SDS011;71849;50.096;14.458;2024-02-16T09:31:48;26.42;;;13.93;;
82244;SDS011;71849;50.096;14.458;2024-02-16T09:34:17;26.08;;;13.65;;
82244;SDS011;71849;50.096;14.458;2024-02-16T09:36:49;29.83;;;13.70;;
82244;SDS011;71849;50.096;14.458;2024-02-16T09:39:17;31.52;;;14.05;;
82244;SDS011;71849;50.096;14.458;2024-02-16T09:41:48;24.70;;;13.90;;
82244;SDS011;71849;50.096;14.458;2024-02-16T09:44:18;27.95;;;14.25;;
82244;SDS011;71849;50.096;14.458;2024-02-16T09:49:17;28.42;;;12.70;;
82244;SDS011;71849;50.096;14.458;2024-02-16T09:51:48;24.00;;;13.10;;
82244;SDS011;71849;50.096;14.458;2024-02-16T09:54:16;31.77;;;16.83;;
82244;SDS011;71849;50.096;14.458;2024-02-16T09:56:45;33.28;;;17.58;;
82244;SDS011;71849;50.096;14.458;2024-02-16T09:59:14;25.10;;;13.45;;
82244;SDS011;71849;50.096;14.458;2024-02-16T10:01:42;27.00;;;13.25;;
82244;SDS011;71849;50.096;14.458;2024-02-16T10:04:11;23.85;;;13.05;;
82244;SDS011;71849;50.096;14.458;2024-02-16T10:06:48;25.75;;;13.68;;
82244;SDS011;71849;50.096;14.458;2024-02-16T10:09:24;25.38;;;13.07;;
82244;SDS011;71849;50.096;14.458;2024-02-16T10:11:54;27.25;;;14.13;;
82244;SDS011;71849;50.096;14.458;2024-02-16T10:14:22;23.38;;;13.38;;
82244;SDS011;71849;50.096;14.458;2024-02-16T10:16:58;25.77;;;12.68;;
82244;SDS011;71849;50.096;14.458;2024-02-16T10:19:28;24.45;;;14.23;;
82244;SDS011;71849;50.096;14.458;2024-02-16T10:22:10;23.90;;;13.63;;
82244;SDS011;71849;50.096;14.458;2024-02-16T10:24:41;22.35;;;12.07;;
82244;SDS011;71849;50.096;14.458;2024-02-16T10:27:13;23.55;;;12.70;;
82244;SDS011;71849;50.096;14.458;2024-02-16T10:29:42;23.25;;;12.85;;
82244;SDS011;71849;50.096;14.458;2024-02-16T10:32:12;21.13;;;12.05;;
82244;SDS011;71849;50.096;14.458;2024-02-16T10:34:41;24.95;;;12.38;;
82244;SDS011;71849;50.096;14.458;2024-02-16T10:37:13;22.52;;;12.02;;
82244;SDS011;71849;50.096;14.458;2024-02-16T10:39:43;21.38;;;12.15;;
82244;SDS011;71849;50.096;14.458;2024-02-16T10:42:13;21.10;;;12.15;;
82244;SDS011;71849;50.096;14.458;2024-02-16T10:44:44;25.38;;;12.82;;
82244;SDS011;71849;50.096;14.458;2024-02-16T10:47:14;21.40;;;12.45;;
82244;SDS011;71849;50.096;14.458;2024-02-16T10:49:42;20.90;;;11.90;;
82244;SDS011;71849;50.096;14.458;2024-02-16T10:52:15;23.38;;;12.88;;
82244;SDS011;71849;50.096;14.458;2024-02-16T10:54:45;23.88;;;12.18;;
82244;SDS011;71849;50.096;14.458;2024-02-16T10:57:15;19.33;;;10.88;;
82244;SDS011;71849;50.096;14.458;2024-02-16T10:59:45;23.30;;;12.15;;
82244;SDS011;71849;50.096;14.458;2024-02-16T11:02:16;22.35;;;13.02;;
82244;SDS011;71849;50.096;14.458;2024-02-16T11:04:45;23.35;;;12.50;;
82244;SDS011;71849;50.096;14.458;2024-02-16T11:07:18;22.33;;;12.52;;
82244;SDS011;71849;50.096;14.458;2024-02-16T11:09:48;23.20;;;12.90;;
82244;SDS011;71849;50.096;14.458;2024-02-16T11:12:18;21.80;;;12.18;;
82244;SDS011;71849;50.096;14.458;2024-02-16T11:14:47;21.08;;;12.30;;
82244;SDS011;71849;50.096;14.458;2024-02-16T11:17:20;22.02;;;12.73;;
82244;SDS011;71849;50.096;14.458;2024-02-16T11:19:53;21.10;;;12.80;;
82244;SDS011;71849;50.096;14.458;2024-02-16T11:22:26;22.58;;;12.93;;
82244;SDS011;71849;50.096;14.458;2024-02-16T11:24:55;23.27;;;13.38;;
82244;SDS011;71849;50.096;14.458;2024-02-16T11:27:28;21.40;;;11.65;;
82244;SDS011;71849;50.096;14.458;2024-02-16T11:29:59;24.13;;;13.15;;
82244;SDS011;71849;50.096;14.458;2024-02-16T11:32:33;27.08;;;14.07;;
82244;SDS011;71849;50.096;14.458;2024-02-16T11:35:05;21.70;;;12.77;;
82244;SDS011;71849;50.096;14.458;2024-02-16T11:37:37;23.75;;;12.93;;
82244;SDS011;71849;50.096;14.458;2024-02-16T11:40:06;25.77;;;13.43;;
82244;SDS011;71849;50.096;14.458;2024-02-16T11:42:42;24.02;;;13.95;;
82244;SDS011;71849;50.096;14.458;2024-02-16T11:45:13;22.65;;;13.38;;
82244;SDS011;71849;50.096;14.458;2024-02-16T11:47:41;23.15;;;11.93;;
82244;SDS011;71849;50.096;14.458;2024-02-16T11:50:10;21.00;;;12.45;;
82244;SDS011;71849;50.096;14.458;2024-02-16T11:52:43;22.23;;;12.50;;
82244;SDS011;71849;50.096;14.458;2024-02-16T11:55:12;21.77;;;12.63;;
82244;SDS011;71849;50.096;14.458;2024-02-16T11:57:41;24.45;;;13.07;;
82244;SDS011;71849;50.096;14.458;2024-02-16T12:00:13;20.77;;;12.15;;
82244;SDS011;71849;50.096;14.458;2024-02-16T12:02:42;22.95;;;12.90;;
82244;SDS011;71849;50.096;14.458;2024-02-16T12:05:13;22.40;;;13.25;;
82244;SDS011;71849;50.096;14.458;2024-02-16T12:07:46;22.88;;;13.48;;
82244;SDS011;71849;50.096;14.458;2024-02-16T12:10:14;22.75;;;13.07;;
82244;SDS011;71849;50.096;14.458;2024-02-16T12:12:43;22.33;;;12.10;;
82244;SDS011;71849;50.096;14.458;2024-02-16T12:15:11;22.58;;;12.77;;
82244;SDS011;71849;50.096;14.458;2024-02-16T12:17:42;21.55;;;12.98;;
82244;SDS011;71849;50.096;14.458;2024-02-16T12:20:11;23.52;;;12.50;;
82244;SDS011;71849;50.096;14.458;2024-02-16T12:22:41;22.10;;;12.68;;
82244;SDS011;71849;50.096;14.458;2024-02-16T12:25:12;25.67;;;13.43;;
82244;SDS011;71849;50.096;14.458;2024-02-16T12:27:41;22.70;;;13.35;;
82244;SDS011;71849;50.096;14.458;2024-02-16T12:30:10;21.65;;;12.65;;
82244;SDS011;71849;50.096;14.458;2024-02-16T12:32:39;22.17;;;12.63;;
82244;SDS011;71849;50.096;14.458;2024-02-16T12:35:08;25.75;;;13.65;;
82244;SDS011;71849;50.096;14.458;2024-02-16T12:37:36;27.65;;;13.95;;
82244;SDS011;71849;50.096;14.458;2024-02-16T12:40:06;28.05;;;13.88;;
82244;SDS011;71849;50.096;14.458;2024-02-16T12:42:38;24.60;;;13.82;;
82244;SDS011;71849;50.096;14.458;2024-02-16T12:45:08;26.95;;;13.68;;
82244;SDS011;71849;50.096;14.458;2024-02-16T12:47:37;21.05;;;12.85;;
82244;SDS011;71849;50.096;14.458;2024-02-16T12:50:06;24.52;;;13.48;;
82244;SDS011;71849;50.096;14.458;2024-02-16T12:52:35;23.38;;;13.73;;
82244;SDS011;71849;50.096;14.458;2024-02-16T12:55:04;29.50;;;14.00;;
82244;SDS011;71849;50.096;14.458;2024-02-16T12:57:35;23.98;;;14.98;;
82244;SDS011;71849;50.096;14.458;2024-02-16T13:00:06;23.75;;;13.55;;
82244;SDS011;71849;50.096;14.458;2024-02-16T13:02:36;25.88;;;13.80;;
82244;SDS011;71849;50.096;14.458;2024-02-16T13:05:05;24.30;;;13.70;;
82244;SDS011;71849;50.096;14.458;2024-02-16T13:07:33;23.63;;;13.40;;
82244;SDS011;71849;50.096;14.458;2024-02-16T13:10:03;24.25;;;13.32;;
82244;SDS011;71849;50.096;14.458;2024-02-16T13:12:32;24.45;;;13.73;;
82244;SDS011;71849;50.096;14.458;2024-02-16T13:15:05;21.10;;;12.45;;
82244;SDS011;71849;50.096;14.458;2024-02-16T13:17:34;24.45;;;13.77;;
82244;SDS011;71849;50.096;14.458;2024-02-16T13:20:03;23.35;;;13.05;;
82244;SDS011;71849;50.096;14.458;2024-02-16T13:22:35;24.67;;;13.20;;
82244;SDS011;71849;50.096;14.458;2024-02-16T13:25:04;22.77;;;13.10;;
82244;SDS011;71849;50.096;14.458;2024-02-16T13:27:33;22.92;;;13.20;;
82244;SDS011;71849;50.096;14.458;2024-02-16T13:30:05;23.48;;;13.85;;
82244;SDS011;71849;50.096;14.458;2024-02-16T13:32:34;23.85;;;13.52;;
82244;SDS011;71849;50.096;14.458;2024-02-16T13:35:05;22.23;;;14.07;;
82244;SDS011;71849;50.096;14.458;2024-02-16T13:37:34;23.30;;;12.63;;
82244;SDS011;71849;50.096;14.458;2024-02-16T13:40:03;24.13;;;13.48;;
82244;SDS011;71849;50.096;14.458;2024-02-16T13:42:36;24.80;;;12.93;;
82244;SDS011;71849;50.096;14.458;2024-02-16T13:47:37;22.67;;;13.52;;
82244;SDS011;71849;50.096;14.458;2024-02-16T13:50:07;22.23;;;12.52;;
82244;SDS011;71849;50.096;14.458;2024-02-16T13:52:36;22.48;;;12.63;;
82244;SDS011;71849;50.096;14.458;2024-02-16T13:55:04;21.67;;;13.05;;
82244;SDS011;71849;50.096;14.458;2024-02-16T13:57:34;23.35;;;12.93;;
82244;SDS011;71849;50.096;14.458;2024-02-16T14:02:35;23.23;;;13.25;;
82244;SDS011;71849;50.096;14.458;2024-02-16T14:05:05;22.98;;;12.75;;
82244;SDS011;71849;50.096;14.458;2024-02-16T14:07:34;23.80;;;13.35;;
82244;SDS011;71849;50.096;14.458;2024-02-16T14:10:04;22.95;;;12.82;;
82244;SDS011;71849;50.096;14.458;2024-02-16T14:12:33;23.13;;;13.07;;
82244;SDS011;71849;50.096;14.458;2024-02-16T14:15:02;23.55;;;13.15;;
82244;SDS011;71849;50.096;14.458;2024-02-16T14:17:30;23.25;;;13.82;;
82244;SDS011;71849;50.096;14.458;2024-02-16T14:20:02;23.85;;;13.60;;
82244;SDS011;71849;50.096;14.458;2024-02-16T14:22:31;21.48;;;13.35;;
82244;SDS011;71849;50.096;14.458;2024-02-16T14:25:02;27.27;;;14.52;;
82244;SDS011;71849;50.096;14.458;2024-02-16T14:27:31;26.67;;;13.40;;
82244;SDS011;71849;50.096;14.458;2024-02-16T14:29:59;25.15;;;15.00;;
82244;SDS011;71849;50.096;14.458;2024-02-16T14:32:28;28.88;;;14.60;;
82244;SDS011;71849;50.096;14.458;2024-02-16T14:34:56;26.50;;;15.13;;
82244;SDS011;71849;50.096;14.458;2024-02-16T14:37:27;24.35;;;14.05;;
82244;SDS011;71849;50.096;14.458;2024-02-16T14:39:56;27.75;;;15.10;;
82244;SDS011;71849;50.096;14.458;2024-02-16T14:42:25;30.05;;;15.07;;